Terminal Aerodrome Forecast
Issued by NWS

Home | Current Version | Previous Version | Text Only | Print | Product List | Glossary On
Versions: 1 2 3 4 5 6 7 8 9 10 11 12 13 14
000
FTUS45 KRIW 302300
TAFBPI
TAF
KBPI 302337Z 3100/3124 02007KT P6SM SCT040 OVC070
     FM311100 VRB04KT P6SM VCFG SCT005 SCT070
     FM311600 33015KT P6SM SKC
     FM312100 33015G22KT P6SM SKC=

USA.gov is the U.S. government's official web portal to all federal, state and local government web resources and services.